sensor_id;sensor_type;location;lat;lon;timestamp;P1;durP1;ratioP1;P2;durP2;ratioP2
19905;SDS011;10115;50.906;4.438;2022-07-30T00:01:08;4.60;;;4.20;;
19905;SDS011;10115;50.906;4.438;2022-07-30T00:03:33;6.37;;;4.33;;
19905;SDS011;10115;50.906;4.438;2022-07-30T00:05:59;4.40;;;4.00;;
19905;SDS011;10115;50.906;4.438;2022-07-30T00:08:25;4.90;;;4.40;;
19905;SDS011;10115;50.906;4.438;2022-07-30T00:10:50;8.70;;;4.33;;
19905;SDS011;10115;50.906;4.438;2022-07-30T00:13:16;4.40;;;4.00;;
19905;SDS011;10115;50.906;4.438;2022-07-30T00:15:43;5.47;;;3.67;;
19905;SDS011;10115;50.906;4.438;2022-07-30T00:18:08;10.43;;;4.40;;
19905;SDS011;10115;50.906;4.438;2022-07-30T00:20:34;7.90;;;4.37;;
19905;SDS011;10115;50.906;4.438;2022-07-30T00:23:03;9.63;;;4.67;;
19905;SDS011;10115;50.906;4.438;2022-07-30T00:25:29;5.40;;;4.47;;
19905;SDS011;10115;50.906;4.438;2022-07-30T00:27:55;8.90;;;5.03;;
19905;SDS011;10115;50.906;4.438;2022-07-30T00:30:21;5.43;;;4.73;;
19905;SDS011;10115;50.906;4.438;2022-07-30T00:32:47;7.43;;;5.37;;
19905;SDS011;10115;50.906;4.438;2022-07-30T00:35:13;5.23;;;4.73;;
19905;SDS011;10115;50.906;4.438;2022-07-30T00:37:38;5.83;;;5.07;;
19905;SDS011;10115;50.906;4.438;2022-07-30T00:40:05;11.53;;;4.97;;
19905;SDS011;10115;50.906;4.438;2022-07-30T00:42:50;5.83;;;5.17;;
19905;SDS011;10115;50.906;4.438;2022-07-30T00:45:16;13.07;;;4.83;;
19905;SDS011;10115;50.906;4.438;2022-07-30T00:47:42;5.67;;;5.03;;
19905;SDS011;10115;50.906;4.438;2022-07-30T00:50:10;7.07;;;5.37;;
19905;SDS011;10115;50.906;4.438;2022-07-30T00:52:37;8.27;;;5.53;;
19905;SDS011;10115;50.906;4.438;2022-07-30T00:55:04;5.87;;;5.03;;
19905;SDS011;10115;50.906;4.438;2022-07-30T00:57:31;7.40;;;5.87;;
19905;SDS011;10115;50.906;4.438;2022-07-30T00:59:57;13.63;;;6.17;;
19905;SDS011;10115;50.906;4.438;2022-07-30T01:02:23;9.80;;;5.47;;
19905;SDS011;10115;50.906;4.438;2022-07-30T01:04:49;7.03;;;6.33;;
19905;SDS011;10115;50.906;4.438;2022-07-30T01:07:14;8.10;;;5.47;;
19905;SDS011;10115;50.906;4.438;2022-07-30T01:09:40;8.77;;;6.30;;
19905;SDS011;10115;50.906;4.438;2022-07-30T01:12:06;6.67;;;6.00;;
19905;SDS011;10115;50.906;4.438;2022-07-30T01:14:34;6.87;;;6.07;;
19905;SDS011;10115;50.906;4.438;2022-07-30T01:17:00;10.97;;;6.60;;
19905;SDS011;10115;50.906;4.438;2022-07-30T01:19:29;7.87;;;5.67;;
19905;SDS011;10115;50.906;4.438;2022-07-30T01:27:40;11.10;;;7.07;;
19905;SDS011;10115;50.906;4.438;2022-07-30T01:30:10;8.33;;;5.80;;
19905;SDS011;10115;50.906;4.438;2022-07-30T01:32:37;6.03;;;5.50;;
19905;SDS011;10115;50.906;4.438;2022-07-30T01:35:07;11.07;;;5.37;;
19905;SDS011;10115;50.906;4.438;2022-07-30T01:37:35;9.03;;;6.03;;
19905;SDS011;10115;50.906;4.438;2022-07-30T01:40:02;9.43;;;6.67;;
19905;SDS011;10115;50.906;4.438;2022-07-30T01:42:29;10.93;;;6.50;;
19905;SDS011;10115;50.906;4.438;2022-07-30T01:44:56;10.80;;;7.13;;
19905;SDS011;10115;50.906;4.438;2022-07-30T01:47:23;12.53;;;6.07;;
19905;SDS011;10115;50.906;4.438;2022-07-30T01:49:49;7.97;;;6.67;;
19905;SDS011;10115;50.906;4.438;2022-07-30T01:52:17;7.27;;;5.73;;
19905;SDS011;10115;50.906;4.438;2022-07-30T01:54:45;7.37;;;6.60;;
19905;SDS011;10115;50.906;4.438;2022-07-30T01:57:15;7.50;;;6.07;;
19905;SDS011;10115;50.906;4.438;2022-07-30T01:59:45;10.37;;;6.53;;
19905;SDS011;10115;50.906;4.438;2022-07-30T02:02:14;8.83;;;6.70;;
19905;SDS011;10115;50.906;4.438;2022-07-30T02:04:40;7.87;;;6.90;;
19905;SDS011;10115;50.906;4.438;2022-07-30T02:07:13;7.77;;;6.53;;
19905;SDS011;10115;50.906;4.438;2022-07-30T02:09:48;8.17;;;7.37;;
19905;SDS011;10115;50.906;4.438;2022-07-30T02:12:19;8.50;;;6.77;;
19905;SDS011;10115;50.906;4.438;2022-07-30T02:17:43;11.80;;;7.20;;
19905;SDS011;10115;50.906;4.438;2022-07-30T02:20:17;7.10;;;6.40;;
19905;SDS011;10115;50.906;4.438;2022-07-30T02:22:45;15.27;;;6.30;;
19905;SDS011;10115;50.906;4.438;2022-07-30T02:25:17;9.93;;;7.13;;
19905;SDS011;10115;50.906;4.438;2022-07-30T02:27:47;10.50;;;6.83;;
19905;SDS011;10115;50.906;4.438;2022-07-30T02:30:16;13.50;;;7.47;;
19905;SDS011;10115;50.906;4.438;2022-07-30T02:32:43;7.93;;;6.57;;
19905;SDS011;10115;50.906;4.438;2022-07-30T02:35:20;9.00;;;6.60;;
19905;SDS011;10115;50.906;4.438;2022-07-30T02:37:48;6.47;;;5.77;;
19905;SDS011;10115;50.906;4.438;2022-07-30T02:40:17;19.63;;;9.37;;
19905;SDS011;10115;50.906;4.438;2022-07-30T02:42:44;15.40;;;6.00;;
19905;SDS011;10115;50.906;4.438;2022-07-30T02:45:14;10.63;;;7.07;;
19905;SDS011;10115;50.906;4.438;2022-07-30T02:47:42;9.97;;;6.57;;
19905;SDS011;10115;50.906;4.438;2022-07-30T02:50:09;14.63;;;6.87;;
19905;SDS011;10115;50.906;4.438;2022-07-30T02:52:36;11.17;;;6.70;;
19905;SDS011;10115;50.906;4.438;2022-07-30T02:55:06;15.17;;;7.57;;
19905;SDS011;10115;50.906;4.438;2022-07-30T02:57:33;6.30;;;5.67;;
19905;SDS011;10115;50.906;4.438;2022-07-30T03:00:01;10.77;;;7.63;;
19905;SDS011;10115;50.906;4.438;2022-07-30T03:02:29;7.77;;;5.17;;
19905;SDS011;10115;50.906;4.438;2022-07-30T03:04:57;9.80;;;6.77;;
19905;SDS011;10115;50.906;4.438;2022-07-30T03:07:25;9.83;;;6.93;;
19905;SDS011;10115;50.906;4.438;2022-07-30T03:09:54;10.43;;;6.43;;
19905;SDS011;10115;50.906;4.438;2022-07-30T03:12:21;11.57;;;7.67;;
19905;SDS011;10115;50.906;4.438;2022-07-30T03:14:48;13.43;;;7.17;;
19905;SDS011;10115;50.906;4.438;2022-07-30T03:17:15;18.83;;;6.67;;
19905;SDS011;10115;50.906;4.438;2022-07-30T03:19:42;8.87;;;7.17;;
19905;SDS011;10115;50.906;4.438;2022-07-30T03:22:09;8.13;;;7.10;;
19905;SDS011;10115;50.906;4.438;2022-07-30T03:24:37;8.80;;;7.23;;
19905;SDS011;10115;50.906;4.438;2022-07-30T03:27:04;9.87;;;7.57;;
19905;SDS011;10115;50.906;4.438;2022-07-30T03:29:31;7.67;;;6.80;;
19905;SDS011;10115;50.906;4.438;2022-07-30T03:31:58;9.50;;;6.83;;
19905;SDS011;10115;50.906;4.438;2022-07-30T03:34:25;13.37;;;8.80;;
19905;SDS011;10115;50.906;4.438;2022-07-30T03:36:51;14.30;;;8.27;;
19905;SDS011;10115;50.906;4.438;2022-07-30T03:39:18;9.57;;;7.50;;
19905;SDS011;10115;50.906;4.438;2022-07-30T03:41:45;8.87;;;6.10;;
19905;SDS011;10115;50.906;4.438;2022-07-30T03:44:12;15.33;;;8.30;;
19905;SDS011;10115;50.906;4.438;2022-07-30T03:46:38;10.00;;;8.40;;
19905;SDS011;10115;50.906;4.438;2022-07-30T03:49:05;10.27;;;7.23;;
19905;SDS011;10115;50.906;4.438;2022-07-30T03:51:33;11.80;;;7.37;;
19905;SDS011;10115;50.906;4.438;2022-07-30T03:54:00;17.07;;;8.70;;
19905;SDS011;10115;50.906;4.438;2022-07-30T03:56:29;10.87;;;7.80;;
19905;SDS011;10115;50.906;4.438;2022-07-30T03:58:55;16.13;;;9.10;;
19905;SDS011;10115;50.906;4.438;2022-07-30T04:01:24;11.37;;;7.83;;
19905;SDS011;10115;50.906;4.438;2022-07-30T04:03:50;17.00;;;8.57;;
19905;SDS011;10115;50.906;4.438;2022-07-30T04:06:16;12.17;;;8.43;;
19905;SDS011;10115;50.906;4.438;2022-07-30T04:08:42;9.97;;;7.97;;
19905;SDS011;10115;50.906;4.438;2022-07-30T04:11:08;12.00;;;7.93;;
19905;SDS011;10115;50.906;4.438;2022-07-30T04:13:33;13.03;;;8.80;;
19905;SDS011;10115;50.906;4.438;2022-07-30T04:16:19;14.53;;;8.47;;
19905;SDS011;10115;50.906;4.438;2022-07-30T04:19:01;10.40;;;8.03;;
19905;SDS011;10115;50.906;4.438;2022-07-30T04:21:29;11.43;;;8.87;;
19905;SDS011;10115;50.906;4.438;2022-07-30T04:23:57;12.90;;;8.80;;
19905;SDS011;10115;50.906;4.438;2022-07-30T04:26:26;12.13;;;9.03;;
19905;SDS011;10115;50.906;4.438;2022-07-30T04:28:55;14.73;;;9.53;;
19905;SDS011;10115;50.906;4.438;2022-07-30T04:31:22;13.80;;;9.47;;
19905;SDS011;10115;50.906;4.438;2022-07-30T04:33:48;16.73;;;10.23;;
19905;SDS011;10115;50.906;4.438;2022-07-30T04:36:14;14.93;;;9.43;;
19905;SDS011;10115;50.906;4.438;2022-07-30T04:38:40;18.80;;;10.77;;
19905;SDS011;10115;50.906;4.438;2022-07-30T04:41:05;16.50;;;8.37;;
19905;SDS011;10115;50.906;4.438;2022-07-30T04:43:31;23.63;;;10.70;;
19905;SDS011;10115;50.906;4.438;2022-07-30T04:45:57;14.90;;;9.47;;
19905;SDS011;10115;50.906;4.438;2022-07-30T04:48:22;12.80;;;9.43;;
19905;SDS011;10115;50.906;4.438;2022-07-30T04:50:51;13.87;;;9.57;;
19905;SDS011;10115;50.906;4.438;2022-07-30T04:53:19;13.27;;;9.27;;
19905;SDS011;10115;50.906;4.438;2022-07-30T04:55:45;11.40;;;9.00;;
19905;SDS011;10115;50.906;4.438;2022-07-30T04:58:13;13.13;;;8.90;;
19905;SDS011;10115;50.906;4.438;2022-07-30T05:00:42;14.70;;;8.63;;
19905;SDS011;10115;50.906;4.438;2022-07-30T05:03:10;13.00;;;9.33;;
19905;SDS011;10115;50.906;4.438;2022-07-30T05:05:38;16.23;;;9.33;;
19905;SDS011;10115;50.906;4.438;2022-07-30T05:08:05;11.00;;;8.93;;
19905;SDS011;10115;50.906;4.438;2022-07-30T05:10:32;11.73;;;8.70;;
19905;SDS011;10115;50.906;4.438;2022-07-30T05:12:58;20.30;;;9.73;;
19905;SDS011;10115;50.906;4.438;2022-07-30T05:15:23;11.97;;;8.73;;
19905;SDS011;10115;50.906;4.438;2022-07-30T05:17:50;16.47;;;8.40;;
19905;SDS011;10115;50.906;4.438;2022-07-30T05:20:15;14.57;;;9.37;;
19905;SDS011;10115;50.906;4.438;2022-07-30T05:22:41;10.90;;;9.03;;
19905;SDS011;10115;50.906;4.438;2022-07-30T05:25:07;14.27;;;8.43;;
19905;SDS011;10115;50.906;4.438;2022-07-30T05:27:32;8.93;;;8.00;;
19905;SDS011;10115;50.906;4.438;2022-07-30T05:29:58;13.07;;;8.83;;
19905;SDS011;10115;50.906;4.438;2022-07-30T05:32:24;16.03;;;8.33;;
19905;SDS011;10115;50.906;4.438;2022-07-30T05:34:49;9.93;;;7.60;;
19905;SDS011;10115;50.906;4.438;2022-07-30T05:37:15;13.67;;;8.33;;
19905;SDS011;10115;50.906;4.438;2022-07-30T05:39:41;12.63;;;8.67;;
19905;SDS011;10115;50.906;4.438;2022-07-30T05:42:06;11.23;;;7.63;;
19905;SDS011;10115;50.906;4.438;2022-07-30T05:44:32;10.17;;;7.70;;
19905;SDS011;10115;50.906;4.438;2022-07-30T05:46:58;8.23;;;6.73;;
19905;SDS011;10115;50.906;4.438;2022-07-30T05:49:23;10.40;;;8.17;;
19905;SDS011;10115;50.906;4.438;2022-07-30T05:51:49;10.80;;;7.27;;
19905;SDS011;10115;50.906;4.438;2022-07-30T05:54:15;15.50;;;7.70;;
19905;SDS011;10115;50.906;4.438;2022-07-30T05:56:40;9.13;;;6.50;;
19905;SDS011;10115;50.906;4.438;2022-07-30T05:59:06;10.07;;;6.80;;
19905;SDS011;10115;50.906;4.438;2022-07-30T06:01:32;14.83;;;7.23;;
19905;SDS011;10115;50.906;4.438;2022-07-30T06:03:57;8.07;;;6.50;;
19905;SDS011;10115;50.906;4.438;2022-07-30T06:06:23;8.73;;;6.70;;
19905;SDS011;10115;50.906;4.438;2022-07-30T06:08:49;7.83;;;5.30;;
19905;SDS011;10115;50.906;4.438;2022-07-30T06:11:15;16.30;;;6.53;;
19905;SDS011;10115;50.906;4.438;2022-07-30T06:13:40;7.40;;;6.37;;
19905;SDS011;10115;50.906;4.438;2022-07-30T06:16:06;6.27;;;5.63;;
19905;SDS011;10115;50.906;4.438;2022-07-30T06:18:32;9.77;;;4.97;;
19905;SDS011;10115;50.906;4.438;2022-07-30T06:20:57;5.70;;;5.13;;
19905;SDS011;10115;50.906;4.438;2022-07-30T06:23:23;8.57;;;6.07;;
19905;SDS011;10115;50.906;4.438;2022-07-30T06:25:49;5.97;;;5.47;;
19905;SDS011;10115;50.906;4.438;2022-07-30T06:28:16;6.33;;;5.60;;
19905;SDS011;10115;50.906;4.438;2022-07-30T06:30:42;13.43;;;5.70;;
19905;SDS011;10115;50.906;4.438;2022-07-30T06:33:12;8.40;;;5.53;;
19905;SDS011;10115;50.906;4.438;2022-07-30T06:35:39;9.10;;;5.57;;
19905;SDS011;10115;50.906;4.438;2022-07-30T06:38:05;13.40;;;5.23;;
19905;SDS011;10115;50.906;4.438;2022-07-30T06:40:31;6.30;;;5.43;;
19905;SDS011;10115;50.906;4.438;2022-07-30T06:42:57;5.97;;;5.37;;
19905;SDS011;10115;50.906;4.438;2022-07-30T06:45:23;5.20;;;4.73;;
19905;SDS011;10115;50.906;4.438;2022-07-30T06:47:49;27.80;;;5.93;;
19905;SDS011;10115;50.906;4.438;2022-07-30T06:50:14;7.33;;;5.73;;
19905;SDS011;10115;50.906;4.438;2022-07-30T06:52:42;11.33;;;5.07;;
19905;SDS011;10115;50.906;4.438;2022-07-30T06:55:08;11.07;;;5.37;;
19905;SDS011;10115;50.906;4.438;2022-07-30T06:57:34;9.20;;;4.90;;
19905;SDS011;10115;50.906;4.438;2022-07-30T07:00:00;6.70;;;5.17;;
19905;SDS011;10115;50.906;4.438;2022-07-30T07:02:26;8.50;;;4.93;;
19905;SDS011;10115;50.906;4.438;2022-07-30T07:04:51;11.20;;;4.83;;
19905;SDS011;10115;50.906;4.438;2022-07-30T07:07:17;4.03;;;3.47;;
19905;SDS011;10115;50.906;4.438;2022-07-30T07:09:43;5.97;;;4.40;;
19905;SDS011;10115;50.906;4.438;2022-07-30T07:12:08;3.73;;;3.43;;
19905;SDS011;10115;50.906;4.438;2022-07-30T07:14:34;4.10;;;3.70;;
19905;SDS011;10115;50.906;4.438;2022-07-30T07:16:59;5.40;;;3.77;;
19905;SDS011;10115;50.906;4.438;2022-07-30T07:19:25;3.50;;;3.20;;
19905;SDS011;10115;50.906;4.438;2022-07-30T07:21:51;6.30;;;3.20;;
19905;SDS011;10115;50.906;4.438;2022-07-30T07:24:17;3.73;;;3.20;;
19905;SDS011;10115;50.906;4.438;2022-07-30T07:26:42;6.40;;;3.40;;
19905;SDS011;10115;50.906;4.438;2022-07-30T07:29:08;3.50;;;3.20;;
19905;SDS011;10115;50.906;4.438;2022-07-30T07:31:34;3.03;;;2.83;;
19905;SDS011;10115;50.906;4.438;2022-07-30T07:34:00;7.13;;;3.33;;
19905;SDS011;10115;50.906;4.438;2022-07-30T07:36:25;3.73;;;3.13;;
19905;SDS011;10115;50.906;4.438;2022-07-30T07:38:52;4.23;;;3.23;;
19905;SDS011;10115;50.906;4.438;2022-07-30T07:41:18;3.83;;;3.43;;
19905;SDS011;10115;50.906;4.438;2022-07-30T07:43:43;8.43;;;3.00;;
19905;SDS011;10115;50.906;4.438;2022-07-30T07:46:09;4.07;;;3.43;;
19905;SDS011;10115;50.906;4.438;2022-07-30T07:48:36;8.10;;;4.00;;
19905;SDS011;10115;50.906;4.438;2022-07-30T07:51:03;3.23;;;2.60;;
19905;SDS011;10115;50.906;4.438;2022-07-30T07:53:28;4.43;;;3.30;;
19905;SDS011;10115;50.906;4.438;2022-07-30T07:55:54;3.03;;;2.80;;
19905;SDS011;10115;50.906;4.438;2022-07-30T07:58:20;2.90;;;2.70;;
19905;SDS011;10115;50.906;4.438;2022-07-30T08:00:46;3.13;;;2.47;;
19905;SDS011;10115;50.906;4.438;2022-07-30T08:03:11;4.70;;;2.50;;
19905;SDS011;10115;50.906;4.438;2022-07-30T08:05:37;2.57;;;2.47;;
19905;SDS011;10115;50.906;4.438;2022-07-30T08:08:03;2.80;;;2.60;;
19905;SDS011;10115;50.906;4.438;2022-07-30T08:10:29;3.33;;;2.40;;
19905;SDS011;10115;50.906;4.438;2022-07-30T08:12:54;3.00;;;2.73;;
19905;SDS011;10115;50.906;4.438;2022-07-30T08:15:20;2.60;;;2.47;;
19905;SDS011;10115;50.906;4.438;2022-07-30T08:17:46;3.83;;;2.37;;
19905;SDS011;10115;50.906;4.438;2022-07-30T08:20:12;2.10;;;2.00;;
19905;SDS011;10115;50.906;4.438;2022-07-30T08:22:39;2.93;;;2.63;;
19905;SDS011;10115;50.906;4.438;2022-07-30T08:25:05;2.60;;;2.20;;
19905;SDS011;10115;50.906;4.438;2022-07-30T08:27:31;2.20;;;2.10;;
19905;SDS011;10115;50.906;4.438;2022-07-30T08:29:57;2.00;;;1.90;;
19905;SDS011;10115;50.906;4.438;2022-07-30T08:32:23;4.27;;;2.27;;
19905;SDS011;10115;50.906;4.438;2022-07-30T08:34:48;2.03;;;1.93;;
19905;SDS011;10115;50.906;4.438;2022-07-30T08:37:14;1.90;;;1.80;;
19905;SDS011;10115;50.906;4.438;2022-07-30T08:39:40;1.80;;;1.70;;
19905;SDS011;10115;50.906;4.438;2022-07-30T08:42:06;2.10;;;1.90;;
19905;SDS011;10115;50.906;4.438;2022-07-30T08:44:32;2.00;;;1.90;;
19905;SDS011;10115;50.906;4.438;2022-07-30T08:46:59;3.33;;;2.20;;
19905;SDS011;10115;50.906;4.438;2022-07-30T08:49:27;2.10;;;1.90;;
19905;SDS011;10115;50.906;4.438;2022-07-30T08:51:52;3.37;;;2.40;;
19905;SDS011;10115;50.906;4.438;2022-07-30T08:54:19;1.90;;;1.80;;
19905;SDS011;10115;50.906;4.438;2022-07-30T08:56:45;2.20;;;2.00;;
19905;SDS011;10115;50.906;4.438;2022-07-30T08:59:13;2.70;;;1.73;;
19905;SDS011;10115;50.906;4.438;2022-07-30T09:01:40;4.63;;;2.07;;
19905;SDS011;10115;50.906;4.438;2022-07-30T09:04:06;2.93;;;2.00;;
19905;SDS011;10115;50.906;4.438;2022-07-30T09:06:32;2.57;;;2.37;;
19905;SDS011;10115;50.906;4.438;2022-07-30T09:08:58;1.90;;;1.80;;
19905;SDS011;10115;50.906;4.438;2022-07-30T09:11:23;3.53;;;2.07;;
19905;SDS011;10115;50.906;4.438;2022-07-30T09:13:49;2.20;;;2.03;;
19905;SDS011;10115;50.906;4.438;2022-07-30T09:16:19;1.90;;;1.80;;
19905;SDS011;10115;50.906;4.438;2022-07-30T09:18:49;2.23;;;2.13;;
19905;SDS011;10115;50.906;4.438;2022-07-30T09:21:17;2.27;;;2.17;;
19905;SDS011;10115;50.906;4.438;2022-07-30T09:24:09;2.13;;;2.00;;
19905;SDS011;10115;50.906;4.438;2022-07-30T09:29:22;2.97;;;2.00;;
19905;SDS011;10115;50.906;4.438;2022-07-30T09:31:56;2.20;;;2.00;;
19905;SDS011;10115;50.906;4.438;2022-07-30T09:37:04;2.10;;;2.00;;
19905;SDS011;10115;50.906;4.438;2022-07-30T09:39:42;4.67;;;2.07;;
19905;SDS011;10115;50.906;4.438;2022-07-30T09:42:18;6.27;;;2.37;;
19905;SDS011;10115;50.906;4.438;2022-07-30T09:44:47;2.00;;;1.90;;
19905;SDS011;10115;50.906;4.438;2022-07-30T09:47:35;2.20;;;2.10;;
19905;SDS011;10115;50.906;4.438;2022-07-30T09:50:07;2.33;;;2.23;;
19905;SDS011;10115;50.906;4.438;2022-07-30T09:52:38;1.80;;;1.70;;
19905;SDS011;10115;50.906;4.438;2022-07-30T09:55:06;1.83;;;1.73;;
19905;SDS011;10115;50.906;4.438;2022-07-30T09:57:32;2.13;;;2.03;;
19905;SDS011;10115;50.906;4.438;2022-07-30T09:59:58;2.47;;;2.27;;
19905;SDS011;10115;50.906;4.438;2022-07-30T10:02:41;6.17;;;2.53;;
19905;SDS011;10115;50.906;4.438;2022-07-30T10:05:14;2.00;;;1.90;;
19905;SDS011;10115;50.906;4.438;2022-07-30T10:07:50;2.13;;;2.03;;
19905;SDS011;10115;50.906;4.438;2022-07-30T10:10:20;2.20;;;2.00;;
19905;SDS011;10115;50.906;4.438;2022-07-30T10:12:49;2.25;;;2.05;;
19905;SDS011;10115;50.906;4.438;2022-07-30T10:15:18;2.20;;;2.10;;
19905;SDS011;10115;50.906;4.438;2022-07-30T10:17:44;2.60;;;2.40;;
19905;SDS011;10115;50.906;4.438;2022-07-30T10:20:11;3.20;;;1.80;;
19905;SDS011;10115;50.906;4.438;2022-07-30T10:22:38;12.98;;;2.58;;
19905;SDS011;10115;50.906;4.438;2022-07-30T10:25:05;3.25;;;2.10;;
19905;SDS011;10115;50.906;4.438;2022-07-30T10:27:32;2.45;;;1.80;;
19905;SDS011;10115;50.906;4.438;2022-07-30T10:29:58;2.00;;;1.90;;
19905;SDS011;10115;50.906;4.438;2022-07-30T10:32:25;3.03;;;1.95;;
19905;SDS011;10115;50.906;4.438;2022-07-30T10:34:51;8.83;;;2.80;;
19905;SDS011;10115;50.906;4.438;2022-07-30T10:37:18;2.27;;;2.07;;
19905;SDS011;10115;50.906;4.438;2022-07-30T10:39:48;11.02;;;2.60;;
19905;SDS011;10115;50.906;4.438;2022-07-30T10:42:26;4.60;;;2.40;;
19905;SDS011;10115;50.906;4.438;2022-07-30T10:45:36;7.72;;;2.35;;
19905;SDS011;10115;50.906;4.438;2022-07-30T10:48:15;2.78;;;2.58;;
19905;SDS011;10115;50.906;4.438;2022-07-30T10:50:56;3.95;;;1.65;;
19905;SDS011;10115;50.906;4.438;2022-07-30T10:53:39;2.08;;;1.88;;
19905;SDS011;10115;50.906;4.438;2022-07-30T10:56:10;1.80;;;1.70;;
19905;SDS011;10115;50.906;4.438;2022-07-30T11:04:19;2.05;;;1.95;;
19905;SDS011;10115;50.906;4.438;2022-07-30T11:06:46;5.38;;;1.80;;
19905;SDS011;10115;50.906;4.438;2022-07-30T11:12:04;2.15;;;1.95;;
19905;SDS011;10115;50.906;4.438;2022-07-30T11:17:16;3.00;;;1.60;;
19905;SDS011;10115;50.906;4.438;2022-07-30T11:22:38;2.92;;;2.00;;
19905;SDS011;10115;50.906;4.438;2022-07-30T11:27:50;2.08;;;1.98;;
19905;SDS011;10115;50.906;4.438;2022-07-30T11:32:45;2.33;;;1.80;;
19905;SDS011;10115;50.906;4.438;2022-07-30T11:38:10;5.00;;;2.60;;
19905;SDS011;10115;50.906;4.438;2022-07-30T11:43:16;3.78;;;1.98;;
19905;SDS011;10115;50.906;4.438;2022-07-30T11:46:11;2.47;;;2.10;;
19905;SDS011;10115;50.906;4.438;2022-07-30T11:48:40;4.55;;;2.65;;
19905;SDS011;10115;50.906;4.438;2022-07-30T11:51:08;2.28;;;2.08;;
19905;SDS011;10115;50.906;4.438;2022-07-30T11:53:34;2.45;;;2.17;;
19905;SDS011;10115;50.906;4.438;2022-07-30T11:56:01;3.63;;;2.28;;
19905;SDS011;10115;50.906;4.438;2022-07-30T11:58:32;4.35;;;1.90;;
19905;SDS011;10115;50.906;4.438;2022-07-30T12:01:03;2.05;;;1.88;;
19905;SDS011;10115;50.906;4.438;2022-07-30T12:03:41;2.25;;;2.05;;
19905;SDS011;10115;50.906;4.438;2022-07-30T12:06:08;1.80;;;1.70;;
19905;SDS011;10115;50.906;4.438;2022-07-30T12:08:41;1.90;;;1.80;;
19905;SDS011;10115;50.906;4.438;2022-07-30T12:11:10;3.53;;;1.83;;
19905;SDS011;10115;50.906;4.438;2022-07-30T12:13:36;1.98;;;1.85;;
19905;SDS011;10115;50.906;4.438;2022-07-30T12:16:06;2.63;;;1.77;;
19905;SDS011;10115;50.906;4.438;2022-07-30T12:18:33;2.10;;;1.90;;
19905;SDS011;10115;50.906;4.438;2022-07-30T12:21:00;2.63;;;1.95;;
19905;SDS011;10115;50.906;4.438;2022-07-30T12:23:28;1.80;;;1.70;;
19905;SDS011;10115;50.906;4.438;2022-07-30T12:25:54;2.13;;;2.00;;
19905;SDS011;10115;50.906;4.438;2022-07-30T12:28:21;4.78;;;2.28;;
19905;SDS011;10115;50.906;4.438;2022-07-30T12:30:50;2.50;;;2.20;;
19905;SDS011;10115;50.906;4.438;2022-07-30T12:33:16;5.30;;;2.17;;
19905;SDS011;10115;50.906;4.438;2022-07-30T12:35:47;2.00;;;1.90;;
19905;SDS011;10115;50.906;4.438;2022-07-30T12:38:20;1.98;;;1.77;;
19905;SDS011;10115;50.906;4.438;2022-07-30T12:41:03;4.85;;;2.08;;
19905;SDS011;10115;50.906;4.438;2022-07-30T12:46:24;1.75;;;1.63;;
19905;SDS011;10115;50.906;4.438;2022-07-30T12:51:30;1.63;;;1.52;;
19905;SDS011;10115;50.906;4.438;2022-07-30T12:53:57;4.63;;;1.90;;
19905;SDS011;10115;50.906;4.438;2022-07-30T12:56:28;2.13;;;2.03;;
19905;SDS011;10115;50.906;4.438;2022-07-30T12:58:56;3.38;;;2.15;;
19905;SDS011;10115;50.906;4.438;2022-07-30T13:01:38;2.63;;;2.08;;
19905;SDS011;10115;50.906;4.438;2022-07-30T13:04:06;4.18;;;1.98;;
19905;SDS011;10115;50.906;4.438;2022-07-30T13:06:32;3.50;;;1.65;;
19905;SDS011;10115;50.906;4.438;2022-07-30T13:08:58;3.95;;;1.98;;
19905;SDS011;10115;50.906;4.438;2022-07-30T13:11:25;4.03;;;2.10;;
19905;SDS011;10115;50.906;4.438;2022-07-30T13:14:03;2.45;;;2.28;;
19905;SDS011;10115;50.906;4.438;2022-07-30T13:16:32;1.80;;;1.70;;
19905;SDS011;10115;50.906;4.438;2022-07-30T13:18:59;4.30;;;2.03;;
19905;SDS011;10115;50.906;4.438;2022-07-30T13:21:35;2.40;;;1.90;;
19905;SDS011;10115;50.906;4.438;2022-07-30T13:24:02;5.20;;;1.75;;
19905;SDS011;10115;50.906;4.438;2022-07-30T13:26:28;14.82;;;2.17;;
19905;SDS011;10115;50.906;4.438;2022-07-30T13:28:54;1.75;;;1.65;;
19905;SDS011;10115;50.906;4.438;2022-07-30T13:31:21;1.60;;;1.50;;
19905;SDS011;10115;50.906;4.438;2022-07-30T13:33:47;2.17;;;1.88;;
19905;SDS011;10115;50.906;4.438;2022-07-30T13:36:13;3.88;;;1.80;;
19905;SDS011;10115;50.906;4.438;2022-07-30T13:38:39;1.95;;;1.85;;
19905;SDS011;10115;50.906;4.438;2022-07-30T13:41:05;1.77;;;1.67;;
19905;SDS011;10115;50.906;4.438;2022-07-30T13:43:31;2.42;;;2.22;;
19905;SDS011;10115;50.906;4.438;2022-07-30T13:45:57;2.03;;;1.92;;
19905;SDS011;10115;50.906;4.438;2022-07-30T13:48:23;5.13;;;1.90;;
19905;SDS011;10115;50.906;4.438;2022-07-30T13:50:49;3.20;;;2.40;;
19905;SDS011;10115;50.906;4.438;2022-07-30T13:53:14;3.70;;;1.65;;
19905;SDS011;10115;50.906;4.438;2022-07-30T13:55:40;2.22;;;1.95;;
19905;SDS011;10115;50.906;4.438;2022-07-30T13:58:10;2.55;;;1.55;;
19905;SDS011;10115;50.906;4.438;2022-07-30T14:00:36;3.25;;;2.28;;
19905;SDS011;10115;50.906;4.438;2022-07-30T14:03:03;2.00;;;1.88;;
19905;SDS011;10115;50.906;4.438;2022-07-30T14:05:35;2.00;;;1.88;;
19905;SDS011;10115;50.906;4.438;2022-07-30T14:08:02;3.25;;;2.05;;
19905;SDS011;10115;50.906;4.438;2022-07-30T14:10:28;3.42;;;1.30;;
19905;SDS011;10115;50.906;4.438;2022-07-30T14:12:54;5.00;;;2.08;;
19905;SDS011;10115;50.906;4.438;2022-07-30T14:15:21;2.92;;;2.17;;
19905;SDS011;10115;50.906;4.438;2022-07-30T14:17:48;2.90;;;1.70;;
19905;SDS011;10115;50.906;4.438;2022-07-30T14:20:14;1.45;;;1.45;;
19905;SDS011;10115;50.906;4.438;2022-07-30T14:22:40;2.05;;;1.85;;
19905;SDS011;10115;50.906;4.438;2022-07-30T14:25:06;11.70;;;2.25;;
19905;SDS011;10115;50.906;4.438;2022-07-30T14:27:32;4.93;;;1.55;;
19905;SDS011;10115;50.906;4.438;2022-07-30T14:29:58;6.95;;;1.70;;
19905;SDS011;10115;50.906;4.438;2022-07-30T14:32:24;1.98;;;1.85;;
19905;SDS011;10115;50.906;4.438;2022-07-30T14:34:50;1.77;;;1.67;;
19905;SDS011;10115;50.906;4.438;2022-07-30T14:37:16;1.95;;;1.85;;
19905;SDS011;10115;50.906;4.438;2022-07-30T14:39:42;2.00;;;1.90;;
19905;SDS011;10115;50.906;4.438;2022-07-30T14:42:07;1.90;;;1.80;;
19905;SDS011;10115;50.906;4.438;2022-07-30T14:44:33;3.38;;;2.00;;
19905;SDS011;10115;50.906;4.438;2022-07-30T14:46:59;1.83;;;1.73;;
19905;SDS011;10115;50.906;4.438;2022-07-30T14:49:24;4.75;;;1.88;;
19905;SDS011;10115;50.906;4.438;2022-07-30T14:51:50;2.38;;;1.90;;
19905;SDS011;10115;50.906;4.438;2022-07-30T14:54:16;2.10;;;2.00;;
19905;SDS011;10115;50.906;4.438;2022-07-30T14:56:43;1.65;;;1.55;;
19905;SDS011;10115;50.906;4.438;2022-07-30T14:59:08;4.22;;;1.77;;
19905;SDS011;10115;50.906;4.438;2022-07-30T15:01:34;3.53;;;1.83;;
19905;SDS011;10115;50.906;4.438;2022-07-30T15:04:00;1.50;;;1.40;;
19905;SDS011;10115;50.906;4.438;2022-07-30T15:06:26;2.55;;;2.10;;
19905;SDS011;10115;50.906;4.438;2022-07-30T15:08:52;3.72;;;2.72;;
19905;SDS011;10115;50.906;4.438;2022-07-30T15:11:18;7.78;;;1.90;;
19905;SDS011;10115;50.906;4.438;2022-07-30T15:13:43;1.77;;;1.67;;
19905;SDS011;10115;50.906;4.438;2022-07-30T15:16:09;2.20;;;1.80;;
19905;SDS011;10115;50.906;4.438;2022-07-30T15:18:35;1.70;;;1.60;;
19905;SDS011;10115;50.906;4.438;2022-07-30T15:21:01;4.90;;;2.00;;
19905;SDS011;10115;50.906;4.438;2022-07-30T15:23:26;1.60;;;1.50;;
19905;SDS011;10115;50.906;4.438;2022-07-30T15:25:52;2.25;;;2.05;;
19905;SDS011;10115;50.906;4.438;2022-07-30T15:28:18;2.13;;;1.85;;
19905;SDS011;10115;50.906;4.438;2022-07-30T15:30:43;8.00;;;1.80;;